Time;durP1;ratioP1;P1;durP2;ratioP2;P2;SDS_P1;SDS_P2;PMS_P1;PMS_P2;Temp;Humidity;BMP_temperature;BMP_pressure;BME280_temperature;BME280_humidity;BME280_pressure;Samples;Min_cycle;Max_cycle;Signal;HPM_P1;HPM_P2
2023/12/07 00:00:26;;;;;;;24.52;14.38;;;;;;;;;;5023083;28;20025;-64
2023/12/07 00:02:51;;;;;;;21.10;13.02;;;;;;;;;;5018690;28;20052;-65
2023/12/07 00:05:16;;;;;;;29.90;14.67;;;;;;;;;;5012871;28;20029;-65
2023/12/07 00:07:42;;;;;;;28.95;14.45;;;;;;;;;;5020385;28;20272;-65
2023/12/07 00:10:07;;;;;;;23.17;14.63;;;;;;;;;;5017482;28;20054;-64
2023/12/07 00:12:32;;;;;;;22.63;14.30;;;;;;;;;;5017429;28;20032;-66
2023/12/07 00:14:57;;;;;;;32.08;16.05;;;;;;;;;;5011084;28;20803;-64
2023/12/07 00:17:23;;;;;;;22.17;14.25;;;;;;;;;;5024695;28;20795;-65
2023/12/07 00:19:50;;;;;;;24.10;15.10;;;;;;;;;;5012964;28;20823;-65
2023/12/07 00:22:15;;;;;;;24.60;15.40;;;;;;;;;;5014930;28;20025;-63
2023/12/07 00:24:40;;;;;;;31.13;18.02;;;;;;;;;;5023174;28;20028;-63
2023/12/07 00:27:05;;;;;;;31.95;19.33;;;;;;;;;;5012489;28;20071;-63
2023/12/07 00:29:31;;;;;;;49.90;21.40;;;;;;;;;;5011574;28;20901;-63
2023/12/07 00:31:56;;;;;;;35.33;20.17;;;;;;;;;;5017763;28;21187;-63
2023/12/07 00:34:22;;;;;;;35.25;20.40;;;;;;;;;;5017431;28;20044;-63
2023/12/07 00:36:48;;;;;;;41.83;19.08;;;;;;;;;;5024381;28;20032;-63
2023/12/07 00:39:13;;;;;;;43.78;20.80;;;;;;;;;;5021085;28;20025;-63
2023/12/07 00:41:38;;;;;;;43.55;19.00;;;;;;;;;;5032031;28;20035;-63
2023/12/07 00:44:03;;;;;;;48.60;22.42;;;;;;;;;;4998881;28;20040;-63
2023/12/07 00:46:29;;;;;;;61.40;21.92;;;;;;;;;;5019205;28;20025;-64
2023/12/07 00:48:54;;;;;;;69.32;21.90;;;;;;;;;;5016721;28;20908;-63
2023/12/07 00:51:19;;;;;;;67.45;22.25;;;;;;;;;;5012412;28;20017;-63
2023/12/07 00:53:44;;;;;;;36.55;20.02;;;;;;;;;;5026072;28;20032;-63
2023/12/07 00:56:09;;;;;;;53.83;20.73;;;;;;;;;;5018759;28;20023;-63
2023/12/07 00:58:36;;;;;;;46.25;20.95;;;;;;;;;;5019590;28;20037;-63
2023/12/07 01:01:01;;;;;;;53.17;20.33;;;;;;;;;;5025259;28;20017;-63
2023/12/07 01:03:26;;;;;;;56.65;21.90;;;;;;;;;;5014795;28;20025;-63
2023/12/07 01:05:52;;;;;;;38.17;21.10;;;;;;;;;;5014826;28;20106;-63
2023/12/07 01:08:17;;;;;;;42.72;21.30;;;;;;;;;;5018630;28;20033;-63
2023/12/07 01:10:42;;;;;;;72.57;19.38;;;;;;;;;;5029486;28;20038;-63
2023/12/07 01:13:07;;;;;;;38.83;18.38;;;;;;;;;;5015004;28;20020;-63
2023/12/07 01:15:32;;;;;;;49.97;19.08;;;;;;;;;;5014033;28;20028;-63
2023/12/07 01:17:58;;;;;;;42.75;18.55;;;;;;;;;;5012333;28;20020;-64
2023/12/07 01:20:23;;;;;;;56.30;18.93;;;;;;;;;;5013545;28;20970;-64
2023/12/07 01:22:48;;;;;;;46.10;16.45;;;;;;;;;;5015932;28;21135;-63
2023/12/07 01:25:19;;;;;;;71.78;15.98;;;;;;;;;;5014379;28;21079;-63
2023/12/07 01:27:45;;;;;;;60.10;18.15;;;;;;;;;;5015008;28;20473;-62
2023/12/07 01:30:10;;;;;;;41.00;16.15;;;;;;;;;;5028124;28;20123;-63
2023/12/07 01:32:35;;;;;;;49.95;15.77;;;;;;;;;;5030985;28;20886;-64
2023/12/07 01:35:00;;;;;;;47.33;17.05;;;;;;;;;;5013525;28;20914;-64
2023/12/07 01:37:27;;;;;;;46.63;14.60;;;;;;;;;;5013298;28;20855;-62
2023/12/07 01:39:52;;;;;;;32.67;15.60;;;;;;;;;;5014767;28;20269;-63
2023/12/07 01:42:17;;;;;;;48.63;16.38;;;;;;;;;;5015771;28;20905;-64
2023/12/07 01:44:43;;;;;;;29.70;15.32;;;;;;;;;;5022240;28;20025;-64
2023/12/07 01:47:10;;;;;;;33.60;15.75;;;;;;;;;;5019891;28;20999;-64
2023/12/07 01:49:35;;;;;;;37.28;14.73;;;;;;;;;;5020572;28;20140;-64
2023/12/07 01:52:01;;;;;;;42.95;13.80;;;;;;;;;;5015625;28;20029;-64
2023/12/07 01:54:27;;;;;;;38.70;15.60;;;;;;;;;;5022595;28;20052;-63
2023/12/07 01:56:52;;;;;;;50.90;14.25;;;;;;;;;;5013173;28;20025;-63
2023/12/07 01:59:17;;;;;;;48.53;15.32;;;;;;;;;;5015036;28;20885;-63
2023/12/07 02:01:43;;;;;;;51.22;14.40;;;;;;;;;;5023528;28;20048;-64
2023/12/07 02:04:09;;;;;;;42.13;14.40;;;;;;;;;;5021675;28;20017;-63
2023/12/07 02:06:34;;;;;;;29.27;14.95;;;;;;;;;;5017064;28;20025;-63
2023/12/07 02:08:59;;;;;;;45.25;13.20;;;;;;;;;;5020872;28;20807;-64
2023/12/07 02:11:25;;;;;;;50.17;14.65;;;;;;;;;;5007855;28;20024;-63
2023/12/07 02:13:54;;;;;;;32.07;13.30;;;;;;;;;;5012963;28;20028;-63
2023/12/07 02:16:25;;;;;;;36.65;12.68;;;;;;;;;;5012010;28;20271;-64
2023/12/07 02:18:54;;;;;;;33.45;13.15;;;;;;;;;;5019239;28;20060;-63
2023/12/07 02:21:38;;;;;;;25.85;13.38;;;;;;;;;;5017934;28;20124;-63
2023/12/07 02:24:05;;;;;;;35.42;12.38;;;;;;;;;;5017603;28;20040;-63
2023/12/07 02:26:34;;;;;;;30.98;13.13;;;;;;;;;;5022038;28;20140;-64
2023/12/07 02:28:59;;;;;;;35.35;13.27;;;;;;;;;;5014148;28;20147;-63
2023/12/07 02:31:24;;;;;;;25.98;13.25;;;;;;;;;;5015545;28;20036;-64
2023/12/07 02:33:50;;;;;;;40.35;14.35;;;;;;;;;;5021722;28;20028;-63
2023/12/07 02:36:17;;;;;;;43.95;13.80;;;;;;;;;;5013078;28;20155;-63
2023/12/07 02:38:43;;;;;;;46.42;14.80;;;;;;;;;;5011537;28;20047;-64
2023/12/07 02:41:10;;;;;;;40.20;14.43;;;;;;;;;;5011795;28;20032;-64
2023/12/07 02:43:36;;;;;;;54.03;14.55;;;;;;;;;;5013218;28;20040;-64
2023/12/07 02:46:01;;;;;;;36.78;14.02;;;;;;;;;;5015858;28;20812;-63
2023/12/07 02:48:27;;;;;;;30.75;15.07;;;;;;;;;;5018728;28;20028;-64
2023/12/07 02:50:52;;;;;;;31.27;13.27;;;;;;;;;;5015674;28;20859;-63
2023/12/07 02:53:17;;;;;;;42.78;14.70;;;;;;;;;;5012703;28;20095;-64
2023/12/07 02:55:42;;;;;;;27.67;13.35;;;;;;;;;;5025008;28;20032;-64
2023/12/07 02:58:08;;;;;;;31.13;13.80;;;;;;;;;;5014975;28;21014;-64
2023/12/07 03:00:33;;;;;;;38.20;13.98;;;;;;;;;;5016840;28;20921;-64
2023/12/07 03:02:58;;;;;;;39.13;13.10;;;;;;;;;;5018390;28;20036;-64
2023/12/07 03:05:24;;;;;;;28.42;13.80;;;;;;;;;;5019461;28;20052;-64
2023/12/07 03:07:49;;;;;;;28.50;13.43;;;;;;;;;;5012492;28;20025;-64
2023/12/07 03:10:14;;;;;;;25.40;13.90;;;;;;;;;;5012236;28;20844;-64
2023/12/07 03:12:39;;;;;;;35.35;14.10;;;;;;;;;;5012809;28;20839;-64
2023/12/07 03:15:05;;;;;;;31.77;16.40;;;;;;;;;;5013140;28;20024;-63
2023/12/07 03:17:30;;;;;;;49.95;16.65;;;;;;;;;;5011540;28;20045;-64
2023/12/07 03:19:55;;;;;;;36.35;14.70;;;;;;;;;;5014500;28;20136;-62
2023/12/07 03:22:21;;;;;;;43.22;15.02;;;;;;;;;;5012190;28;20087;-62
2023/12/07 03:24:47;;;;;;;34.15;15.63;;;;;;;;;;5015040;28;20874;-63
2023/12/07 03:27:12;;;;;;;33.35;15.70;;;;;;;;;;5021195;28;20024;-63
2023/12/07 03:29:37;;;;;;;52.05;14.63;;;;;;;;;;5012430;28;20025;-63
2023/12/07 03:32:03;;;;;;;34.22;15.65;;;;;;;;;;5016586;28;20958;-63
2023/12/07 03:34:28;;;;;;;32.15;14.85;;;;;;;;;;5021206;28;20984;-62
2023/12/07 03:36:53;;;;;;;31.27;13.68;;;;;;;;;;5019897;28;20060;-63
2023/12/07 03:39:19;;;;;;;30.98;14.73;;;;;;;;;;5015320;28;20136;-63
2023/12/07 03:41:44;;;;;;;41.05;15.93;;;;;;;;;;5010386;28;20963;-63
2023/12/07 03:44:09;;;;;;;36.72;15.30;;;;;;;;;;5016980;28;20079;-63
2023/12/07 03:46:34;;;;;;;37.53;14.68;;;;;;;;;;5017224;28;20398;-63
2023/12/07 03:49:00;;;;;;;31.75;15.30;;;;;;;;;;5011407;28;20148;-64
2023/12/07 03:51:26;;;;;;;37.00;14.77;;;;;;;;;;5012193;28;20067;-65
2023/12/07 03:53:51;;;;;;;36.40;14.45;;;;;;;;;;5014937;28;20215;-65
2023/12/07 03:56:27;;;;;;;27.25;14.02;;;;;;;;;;5022474;28;20581;-64
2023/12/07 03:58:53;;;;;;;41.47;14.52;;;;;;;;;;5017973;28;20032;-63
2023/12/07 04:01:22;;;;;;;38.92;15.75;;;;;;;;;;5010736;28;20021;-63
2023/12/07 04:03:47;;;;;;;35.00;14.55;;;;;;;;;;5010566;28;20036;-63
2023/12/07 04:06:12;;;;;;;29.80;15.40;;;;;;;;;;5022453;28;20124;-63
2023/12/07 04:08:37;;;;;;;42.03;13.87;;;;;;;;;;5012202;28;20859;-63
2023/12/07 04:11:03;;;;;;;46.03;13.80;;;;;;;;;;5028289;28;20289;-64
2023/12/07 04:13:28;;;;;;;36.33;13.43;;;;;;;;;;5014105;28;20021;-63
2023/12/07 04:15:53;;;;;;;40.00;14.27;;;;;;;;;;5013510;28;20087;-63
2023/12/07 04:18:18;;;;;;;33.15;14.25;;;;;;;;;;5014865;28;20117;-63
2023/12/07 04:20:44;;;;;;;36.47;13.47;;;;;;;;;;5032139;28;20025;-63
2023/12/07 04:23:09;;;;;;;29.08;14.73;;;;;;;;;;5019912;28;20293;-63
2023/12/07 04:25:34;;;;;;;31.95;15.07;;;;;;;;;;5016132;28;20129;-63
2023/12/07 04:27:59;;;;;;;32.38;11.98;;;;;;;;;;5024579;28;20032;-63
2023/12/07 04:30:25;;;;;;;29.90;13.45;;;;;;;;;;5015308;28;20956;-63
2023/12/07 04:32:50;;;;;;;26.25;13.80;;;;;;;;;;5014881;28;20053;-64
2023/12/07 04:35:15;;;;;;;34.55;13.90;;;;;;;;;;5014788;28;20027;-63
2023/12/07 04:37:40;;;;;;;31.77;15.43;;;;;;;;;;5014110;28;20067;-63
2023/12/07 04:40:06;;;;;;;39.58;14.30;;;;;;;;;;5015038;28;21061;-64
2023/12/07 04:42:31;;;;;;;32.70;13.13;;;;;;;;;;5019226;28;20966;-64
2023/12/07 04:44:56;;;;;;;39.65;13.32;;;;;;;;;;5024171;28;20025;-64
2023/12/07 04:47:23;;;;;;;37.10;13.13;;;;;;;;;;5021480;28;20020;-64
2023/12/07 04:49:48;;;;;;;38.97;14.57;;;;;;;;;;5016082;28;20025;-64
2023/12/07 04:52:13;;;;;;;34.60;13.90;;;;;;;;;;5014799;28;20910;-64
2023/12/07 04:54:39;;;;;;;34.42;13.60;;;;;;;;;;5014598;28;20859;-64
2023/12/07 04:57:04;;;;;;;32.93;14.57;;;;;;;;;;5026140;28;20936;-64
2023/12/07 04:59:29;;;;;;;39.72;13.88;;;;;;;;;;5024054;28;20273;-64
2023/12/07 05:01:54;;;;;;;40.05;12.32;;;;;;;;;;5014577;28;20024;-64
2023/12/07 05:04:20;;;;;;;28.55;13.65;;;;;;;;;;5022970;28;20132;-64
2023/12/07 05:06:45;;;;;;;31.27;15.27;;;;;;;;;;5017406;28;20025;-64
2023/12/07 05:09:10;;;;;;;44.03;14.18;;;;;;;;;;5023271;28;20937;-64
2023/12/07 05:11:36;;;;;;;28.42;13.43;;;;;;;;;;5028894;28;20925;-64
2023/12/07 05:14:03;;;;;;;26.80;12.07;;;;;;;;;;5019746;28;20214;-64
2023/12/07 05:16:28;;;;;;;27.20;13.48;;;;;;;;;;5020360;28;20641;-63
2023/12/07 05:18:54;;;;;;;33.85;13.55;;;;;;;;;;5013604;28;20933;-64
2023/12/07 05:21:19;;;;;;;30.35;14.23;;;;;;;;;;5023004;28;20048;-64
2023/12/07 05:23:45;;;;;;;33.35;14.40;;;;;;;;;;5018373;28;20911;-65
2023/12/07 05:26:10;;;;;;;24.90;12.30;;;;;;;;;;5014884;28;20861;-64
2023/12/07 05:28:36;;;;;;;36.97;14.07;;;;;;;;;;5013074;28;20893;-64
2023/12/07 05:31:01;;;;;;;30.02;14.23;;;;;;;;;;5013998;28;20067;-64
2023/12/07 05:33:27;;;;;;;33.00;14.65;;;;;;;;;;5025495;28;20826;-63
2023/12/07 05:35:53;;;;;;;37.78;13.85;;;;;;;;;;5015810;28;20131;-63
2023/12/07 05:38:18;;;;;;;27.60;13.98;;;;;;;;;;5016839;28;20048;-65
2023/12/07 05:40:43;;;;;;;32.13;13.73;;;;;;;;;;5018018;28;20027;-65
2023/12/07 05:43:09;;;;;;;29.45;14.10;;;;;;;;;;5018870;28;20021;-64
2023/12/07 05:45:34;;;;;;;28.90;13.07;;;;;;;;;;5026639;28;20970;-64
2023/12/07 05:47:59;;;;;;;28.17;14.80;;;;;;;;;;5016505;28;20016;-64
2023/12/07 05:50:24;;;;;;;29.40;13.82;;;;;;;;;;5018073;28;20302;-64
2023/12/07 05:52:50;;;;;;;31.25;14.00;;;;;;;;;;5017816;28;20017;-64
2023/12/07 05:55:15;;;;;;;26.52;13.40;;;;;;;;;;5012696;28;20115;-64
2023/12/07 05:57:40;;;;;;;40.85;14.20;;;;;;;;;;5011984;28;20085;-64
2023/12/07 06:00:09;;;;;;;41.58;16.02;;;;;;;;;;5013388;28;20016;-65
2023/12/07 06:02:34;;;;;;;23.83;13.82;;;;;;;;;;5012069;28;20036;-64
2023/12/07 06:04:59;;;;;;;29.17;12.90;;;;;;;;;;5012919;28;20856;-64
2023/12/07 06:07:24;;;;;;;24.35;13.52;;;;;;;;;;5012910;28;20110;-64
2023/12/07 06:09:50;;;;;;;28.60;13.25;;;;;;;;;;5015462;28;20938;-64
2023/12/07 06:12:15;;;;;;;31.65;13.55;;;;;;;;;;5026136;28;20466;-64
2023/12/07 06:14:40;;;;;;;25.85;13.60;;;;;;;;;;5017087;28;20838;-64
2023/12/07 06:17:07;;;;;;;31.38;13.38;;;;;;;;;;5023700;28;20013;-64
2023/12/07 06:19:33;;;;;;;25.40;13.43;;;;;;;;;;5017908;28;20020;-64
2023/12/07 06:21:58;;;;;;;25.45;13.27;;;;;;;;;;5018687;28;20128;-64
2023/12/07 06:24:24;;;;;;;25.75;12.93;;;;;;;;;;5022429;28;20028;-64
2023/12/07 06:26:50;;;;;;;29.30;13.70;;;;;;;;;;5024611;28;20083;-64
2023/12/07 06:29:15;;;;;;;32.95;13.85;;;;;;;;;;5025523;28;20897;-64
2023/12/07 06:31:43;;;;;;;25.77;13.80;;;;;;;;;;5021811;28;20148;-64
2023/12/07 06:34:09;;;;;;;23.75;12.80;;;;;;;;;;5015829;28;20025;-64
2023/12/07 06:36:35;;;;;;;23.27;13.93;;;;;;;;;;5022238;28;20812;-64
2023/12/07 06:39:01;;;;;;;26.30;13.45;;;;;;;;;;5013155;28;20029;-64
2023/12/07 06:41:26;;;;;;;28.08;13.68;;;;;;;;;;5021824;28;20920;-64
2023/12/07 06:43:51;;;;;;;27.42;14.18;;;;;;;;;;5022922;28;20935;-64
2023/12/07 06:46:17;;;;;;;22.52;12.60;;;;;;;;;;5015533;28;20029;-64
2023/12/07 06:48:43;;;;;;;28.58;14.20;;;;;;;;;;5018214;28;20043;-64
2023/12/07 06:51:08;;;;;;;26.80;13.30;;;;;;;;;;5020085;28;20934;-64
2023/12/07 06:53:33;;;;;;;29.35;14.07;;;;;;;;;;5033638;28;20538;-64
2023/12/07 06:55:59;;;;;;;28.85;14.63;;;;;;;;;;5013257;28;20908;-64
2023/12/07 06:58:24;;;;;;;24.63;13.02;;;;;;;;;;5015441;28;20037;-64
2023/12/07 07:00:49;;;;;;;27.13;13.82;;;;;;;;;;5022869;28;20133;-64
2023/12/07 07:03:15;;;;;;;24.33;12.07;;;;;;;;;;5015376;28;20904;-64
2023/12/07 07:05:40;;;;;;;26.73;13.65;;;;;;;;;;5014030;28;20464;-64
2023/12/07 07:08:07;;;;;;;27.08;13.05;;;;;;;;;;5015614;28;20031;-65
2023/12/07 07:10:33;;;;;;;27.90;13.20;;;;;;;;;;5029221;28;20025;-65
2023/12/07 07:13:04;;;;;;;22.50;12.18;;;;;;;;;;5009756;28;20912;-65
2023/12/07 07:15:30;;;;;;;24.48;11.40;;;;;;;;;;5029765;28;20553;-64
2023/12/07 07:17:55;;;;;;;22.88;12.45;;;;;;;;;;5028451;28;20056;-65
2023/12/07 07:20:21;;;;;;;20.92;12.23;;;;;;;;;;5029741;28;20095;-65
2023/12/07 07:22:46;;;;;;;22.17;12.57;;;;;;;;;;5020389;28;20028;-65
2023/12/07 07:25:12;;;;;;;22.30;11.88;;;;;;;;;;5015829;28;20864;-65
2023/12/07 07:27:37;;;;;;;22.17;11.65;;;;;;;;;;5023862;28;20021;-64
2023/12/07 07:30:04;;;;;;;21.00;11.85;;;;;;;;;;5012586;28;20864;-64
2023/12/07 07:32:29;;;;;;;23.65;11.60;;;;;;;;;;5016212;28;20851;-64
2023/12/07 07:34:54;;;;;;;21.17;12.02;;;;;;;;;;5014371;28;20025;-64
2023/12/07 07:37:20;;;;;;;21.50;11.95;;;;;;;;;;5016068;28;20023;-64
2023/12/07 07:39:46;;;;;;;19.05;10.57;;;;;;;;;;5014994;28;21021;-64
2023/12/07 07:42:11;;;;;;;23.13;11.88;;;;;;;;;;5011041;28;20906;-64
2023/12/07 07:44:37;;;;;;;20.33;10.90;;;;;;;;;;5013666;28;20056;-64
2023/12/07 07:47:02;;;;;;;20.08;10.48;;;;;;;;;;5022973;28;20032;-64
2023/12/07 07:49:27;;;;;;;24.30;11.77;;;;;;;;;;5024657;28;20032;-64
2023/12/07 07:51:52;;;;;;;19.92;10.68;;;;;;;;;;5026568;28;20029;-65
2023/12/07 07:54:18;;;;;;;22.10;11.38;;;;;;;;;;5032253;28;20035;-64
2023/12/07 07:56:43;;;;;;;16.77;9.48;;;;;;;;;;5029907;28;20094;-64
2023/12/07 07:59:08;;;;;;;18.17;10.10;;;;;;;;;;5023931;28;20021;-64
2023/12/07 08:01:33;;;;;;;17.33;10.38;;;;;;;;;;5017182;28;21002;-64
2023/12/07 08:03:59;;;;;;;19.02;10.35;;;;;;;;;;5017211;28;20823;-64
2023/12/07 08:06:24;;;;;;;22.48;11.30;;;;;;;;;;5016480;28;20139;-64
2023/12/07 08:08:49;;;;;;;15.27;10.02;;;;;;;;;;5015600;28;20791;-64
2023/12/07 08:11:15;;;;;;;17.80;10.05;;;;;;;;;;5017251;28;20086;-64
2023/12/07 08:13:40;;;;;;;17.55;10.18;;;;;;;;;;5017659;28;20235;-64
2023/12/07 08:16:09;;;;;;;16.70;10.65;;;;;;;;;;5019014;28;20021;-64
2023/12/07 08:18:34;;;;;;;16.20;8.95;;;;;;;;;;5008060;28;20033;-64
2023/12/07 08:20:59;;;;;;;17.73;9.73;;;;;;;;;;5047292;28;20486;-64
2023/12/07 08:23:24;;;;;;;18.63;9.15;;;;;;;;;;5056869;28;20029;-64
2023/12/07 08:25:49;;;;;;;18.08;10.20;;;;;;;;;;5015771;28;20120;-64
2023/12/07 08:28:15;;;;;;;19.48;10.02;;;;;;;;;;5015554;28;20964;-65
2023/12/07 08:30:40;;;;;;;16.35;9.43;;;;;;;;;;5044348;28;20021;-64
2023/12/07 08:33:05;;;;;;;16.67;9.00;;;;;;;;;;5053672;28;20622;-64
2023/12/07 08:35:30;;;;;;;16.85;9.75;;;;;;;;;;5054160;28;20391;-64
2023/12/07 08:37:56;;;;;;;21.77;10.15;;;;;;;;;;5053727;28;20029;-64
2023/12/07 08:40:21;;;;;;;16.55;9.00;;;;;;;;;;5056303;28;20071;-64
2023/12/07 08:42:50;;;;;;;15.00;10.02;;;;;;;;;;5055899;28;20037;-65
2023/12/07 08:45:15;;;;;;;16.08;9.18;;;;;;;;;;5065365;28;20039;-65
2023/12/07 08:47:41;;;;;;;16.25;9.35;;;;;;;;;;5065422;28;20032;-64
2023/12/07 08:50:07;;;;;;;19.02;9.90;;;;;;;;;;5053784;28;20367;-64
2023/12/07 08:52:33;;;;;;;16.25;9.95;;;;;;;;;;5053373;28;20040;-65
2023/12/07 08:54:58;;;;;;;17.48;11.23;;;;;;;;;;5051991;28;20025;-64
2023/12/07 08:57:23;;;;;;;20.20;10.52;;;;;;;;;;5055713;28;20123;-64
2023/12/07 08:59:48;;;;;;;16.50;9.57;;;;;;;;;;5059888;28;20471;-64
2023/12/07 09:02:14;;;;;;;20.92;10.73;;;;;;;;;;5055098;28;20471;-64
2023/12/07 09:04:39;;;;;;;26.02;10.77;;;;;;;;;;5053044;28;20024;-64
2023/12/07 09:07:04;;;;;;;21.90;10.40;;;;;;;;;;5053415;28;20021;-64
2023/12/07 09:09:29;;;;;;;17.98;10.18;;;;;;;;;;5054687;28;20112;-64
2023/12/07 09:11:55;;;;;;;18.85;10.70;;;;;;;;;;5064221;28;20131;-65
2023/12/07 09:14:20;;;;;;;20.13;11.33;;;;;;;;;;5052826;28;20069;-65
2023/12/07 09:16:45;;;;;;;19.27;11.37;;;;;;;;;;5059433;28;20686;-64
2023/12/07 09:19:12;;;;;;;23.88;13.75;;;;;;;;;;5067709;28;20821;-64
2023/12/07 09:21:37;;;;;;;27.65;13.55;;;;;;;;;;5063403;28;20035;-64
2023/12/07 09:24:02;;;;;;;25.60;13.52;;;;;;;;;;5052316;28;20099;-65
2023/12/07 09:26:28;;;;;;;27.30;13.45;;;;;;;;;;5058128;28;20047;-65
2023/12/07 09:28:53;;;;;;;25.75;13.63;;;;;;;;;;5052179;28;20029;-64
2023/12/07 09:31:18;;;;;;;23.73;13.52;;;;;;;;;;5055507;28;20028;-64
2023/12/07 09:33:43;;;;;;;23.70;13.50;;;;;;;;;;5055476;28;20052;-64
2023/12/07 09:36:11;;;;;;;25.10;13.60;;;;;;;;;;5054685;28;20079;-65
2023/12/07 09:38:36;;;;;;;20.98;11.80;;;;;;;;;;5052779;28;20024;-64
2023/12/07 09:41:02;;;;;;;22.17;13.25;;;;;;;;;;5052817;28;20383;-64
2023/12/07 09:43:27;;;;;;;24.42;12.80;;;;;;;;;;5052657;28;20043;-64
2023/12/07 09:45:53;;;;;;;25.20;12.55;;;;;;;;;;5052534;28;20120;-64
2023/12/07 09:48:19;;;;;;;24.80;13.07;;;;;;;;;;5056674;28;20527;-64
2023/12/07 09:50:44;;;;;;;18.55;11.88;;;;;;;;;;5056265;28;20025;-65
2023/12/07 09:53:10;;;;;;;20.23;11.82;;;;;;;;;;5054298;28;20052;-65
2023/12/07 09:55:35;;;;;;;21.55;12.00;;;;;;;;;;5052257;28;20402;-64
2023/12/07 09:58:00;;;;;;;21.75;12.30;;;;;;;;;;5052435;28;20029;-64
2023/12/07 10:00:26;;;;;;;24.70;11.32;;;;;;;;;;5052891;28;20029;-64
2023/12/07 10:02:51;;;;;;;18.15;11.45;;;;;;;;;;5057586;28;20463;-64
2023/12/07 10:05:16;;;;;;;22.63;11.93;;;;;;;;;;5055349;28;20016;-65
2023/12/07 10:07:43;;;;;;;22.20;11.20;;;;;;;;;;5060089;28;20475;-64
2023/12/07 10:10:11;;;;;;;22.48;11.32;;;;;;;;;;5057413;28;20067;-64
2023/12/07 10:12:46;;;;;;;18.23;11.02;;;;;;;;;;5056946;28;20539;-64
2023/12/07 10:15:13;;;;;;;;;;;;;;;;;;5052493;28;20055;-64
2023/12/07 10:17:44;;;;;;;18.48;9.93;;;;;;;;;;5055479;28;19912;-64
2023/12/07 10:20:11;;;;;;;18.65;10.60;;;;;;;;;;5053976;28;20029;-64
2023/12/07 10:22:38;;;;;;;20.92;11.20;;;;;;;;;;5054717;28;20024;-64
2023/12/07 10:25:04;;;;;;;17.13;9.45;;;;;;;;;;5052060;28;20120;-64
2023/12/07 10:27:29;;;;;;;17.63;10.02;;;;;;;;;;5051375;28;20116;-64
2023/12/07 10:29:55;;;;;;;18.57;9.87;;;;;;;;;;5057196;28;20036;-64
2023/12/07 10:32:21;;;;;;;14.15;9.68;;;;;;;;;;5058418;28;20264;-64
2023/12/07 10:34:46;;;;;;;18.25;9.65;;;;;;;;;;5034107;28;20444;-64
2023/12/07 10:37:12;;;;;;;14.60;8.48;;;;;;;;;;5056617;28;20070;-64
2023/12/07 10:39:37;;;;;;;14.27;9.30;;;;;;;;;;5050861;28;20031;-64
2023/12/07 10:42:03;;;;;;;15.90;8.90;;;;;;;;;;5054245;28;20021;-64
2023/12/07 10:44:29;;;;;;;16.67;9.57;;;;;;;;;;5050725;28;20021;-64
2023/12/07 10:46:55;;;;;;;15.18;7.70;;;;;;;;;;5062050;28;20028;-65
2023/12/07 10:49:21;;;;;;;14.43;8.02;;;;;;;;;;5051414;28;20489;-64
2023/12/07 10:51:51;;;;;;;14.43;8.32;;;;;;;;;;5056641;28;20367;-65
2023/12/07 10:54:18;;;;;;;14.45;8.10;;;;;;;;;;5052371;28;20044;-65
2023/12/07 10:56:44;;;;;;;12.15;7.60;;;;;;;;;;5059605;28;20056;-65
2023/12/07 10:59:11;;;;;;;12.63;7.75;;;;;;;;;;5051911;28;20048;-65
2023/12/07 11:01:38;;;;;;;10.30;6.82;;;;;;;;;;5059128;28;20025;-65
2023/12/07 11:04:05;;;;;;;10.48;6.57;;;;;;;;;;5052305;28;20032;-65
2023/12/07 11:06:30;;;;;;;13.63;8.00;;;;;;;;;;5063265;28;20454;-65
2023/12/07 11:09:00;;;;;;;10.82;7.07;;;;;;;;;;5062678;28;20056;-65
2023/12/07 11:11:29;;;;;;;11.75;6.68;;;;;;;;;;5068719;28;20407;-65
2023/12/07 11:14:05;;;;;;;11.85;6.90;;;;;;;;;;5051527;28;20487;-65
2023/12/07 11:16:34;;;;;;;9.93;6.82;;;;;;;;;;5059056;28;20651;-65
2023/12/07 11:19:00;;;;;;;9.70;6.18;;;;;;;;;;5050259;28;20051;-64
2023/12/07 11:21:25;;;;;;;12.25;7.03;;;;;;;;;;5056649;28;20460;-65
2023/12/07 11:23:52;;;;;;;10.57;6.32;;;;;;;;;;5056927;28;20029;-65
2023/12/07 11:26:19;;;;;;;12.05;6.15;;;;;;;;;;5054962;28;20532;-64
2023/12/07 11:28:44;;;;;;;8.07;5.75;;;;;;;;;;5057283;28;20446;-64
2023/12/07 11:31:09;;;;;;;10.23;5.28;;;;;;;;;;5053873;28;20107;-64
2023/12/07 11:33:39;;;;;;;13.82;6.60;;;;;;;;;;5057905;28;20036;-64
2023/12/07 11:36:06;;;;;;;13.63;6.85;;;;;;;;;;5053822;28;20032;-64
2023/12/07 11:38:31;;;;;;;10.43;5.90;;;;;;;;;;5066352;28;20086;-64
2023/12/07 11:40:57;;;;;;;9.18;5.82;;;;;;;;;;5059274;28;20446;-65
2023/12/07 11:43:40;;;;;;;12.75;5.25;;;;;;;;;;5062742;28;20017;-65
2023/12/07 11:46:08;;;;;;;11.43;6.85;;;;;;;;;;5053773;28;20029;-65
2023/12/07 11:48:34;;;;;;;7.65;4.68;;;;;;;;;;5050328;28;20040;-65
2023/12/07 11:51:00;;;;;;;8.30;5.13;;;;;;;;;;5050897;28;20025;-63
2023/12/07 11:53:26;;;;;;;8.52;5.20;;;;;;;;;;5050643;28;20108;-63
2023/12/07 11:55:51;;;;;;;8.70;4.68;;;;;;;;;;5059697;28;20136;-65
2023/12/07 11:58:17;;;;;;;8.90;5.45;;;;;;;;;;5056562;28;20032;-63
2023/12/07 12:00:43;;;;;;;8.73;5.78;;;;;;;;;;5053976;28;20446;-63
2023/12/07 12:03:08;;;;;;;10.48;5.65;;;;;;;;;;5055644;28;20029;-63
2023/12/07 12:05:33;;;;;;;9.47;5.20;;;;;;;;;;5052471;28;20032;-64
2023/12/07 12:07:59;;;;;;;9.87;5.67;;;;;;;;;;5063291;28;20279;-65
2023/12/07 12:10:25;;;;;;;9.80;5.95;;;;;;;;;;5056948;28;20287;-66
2023/12/07 12:12:51;;;;;;;8.45;5.72;;;;;;;;;;5058357;28;20029;-65
2023/12/07 12:15:16;;;;;;;9.93;6.15;;;;;;;;;;5050542;28;20075;-65
2023/12/07 12:17:42;;;;;;;10.80;5.70;;;;;;;;;;5060384;28;20028;-65
2023/12/07 12:20:08;;;;;;;12.43;5.22;;;;;;;;;;5050042;28;20017;-65
2023/12/07 12:22:36;;;;;;;11.40;5.70;;;;;;;;;;5061525;28;20796;-65
2023/12/07 12:25:01;;;;;;;10.10;5.68;;;;;;;;;;5049303;28;20472;-65
2023/12/07 12:27:26;;;;;;;10.07;5.35;;;;;;;;;;5059953;28;20036;-65
2023/12/07 12:29:52;;;;;;;8.27;4.85;;;;;;;;;;5061518;28;20041;-65
2023/12/07 12:32:17;;;;;;;11.13;6.05;;;;;;;;;;5058233;28;20032;-65
2023/12/07 12:34:42;;;;;;;9.95;5.88;;;;;;;;;;5053423;28;20056;-64
2023/12/07 12:37:09;;;;;;;8.97;5.30;;;;;;;;;;5057559;28;20032;-64
2023/12/07 12:39:34;;;;;;;9.15;4.55;;;;;;;;;;5053054;28;20618;-64
2023/12/07 12:42:00;;;;;;;7.07;4.45;;;;;;;;;;5056885;28;20020;-64
2023/12/07 12:44:26;;;;;;;7.55;4.90;;;;;;;;;;5060227;28;20107;-64
2023/12/07 12:46:52;;;;;;;7.22;4.70;;;;;;;;;;5057441;28;20475;-64
2023/12/07 12:49:17;;;;;;;8.70;5.75;;;;;;;;;;5052606;28;20052;-64
2023/12/07 12:51:44;;;;;;;8.43;4.88;;;;;;;;;;5055704;28;20495;-64
2023/12/07 12:54:09;;;;;;;7.70;5.00;;;;;;;;;;5052018;28;20031;-64
2023/12/07 12:56:34;;;;;;;9.57;5.40;;;;;;;;;;5054421;28;20028;-64
2023/12/07 12:59:00;;;;;;;9.65;6.60;;;;;;;;;;5058984;28;20071;-64
2023/12/07 13:01:25;;;;;;;7.95;5.25;;;;;;;;;;5053298;28;20480;-64
2023/12/07 13:03:50;;;;;;;8.43;4.80;;;;;;;;;;5053796;28;20032;-64
2023/12/07 13:06:16;;;;;;;9.27;5.40;;;;;;;;;;5065328;28;20111;-64
2023/12/07 13:08:43;;;;;;;11.05;5.30;;;;;;;;;;5066334;28;20410;-64
2023/12/07 13:11:09;;;;;;;8.18;4.85;;;;;;;;;;5052762;28;20128;-64
2023/12/07 13:13:34;;;;;;;9.25;6.20;;;;;;;;;;5067195;28;20127;-64
2023/12/07 13:15:59;;;;;;;18.08;11.05;;;;;;;;;;5056624;28;20357;-64
2023/12/07 13:18:24;;;;;;;43.30;25.15;;;;;;;;;;5059671;28;20426;-64
2023/12/07 13:20:50;;;;;;;24.93;13.50;;;;;;;;;;5051843;28;20039;-64
2023/12/07 13:23:15;;;;;;;22.07;11.70;;;;;;;;;;5062369;28;20356;-64
2023/12/07 13:25:41;;;;;;;25.60;13.45;;;;;;;;;;5059622;28;20354;-64
2023/12/07 13:28:06;;;;;;;18.73;10.23;;;;;;;;;;5056475;28;20025;-64
2023/12/07 13:30:35;;;;;;;37.08;17.77;;;;;;;;;;5052271;28;20021;-64
2023/12/07 13:33:00;;;;;;;17.77;11.05;;;;;;;;;;5055671;28;20025;-63
2023/12/07 13:35:25;;;;;;;35.47;20.25;;;;;;;;;;5052151;28;20025;-63
2023/12/07 13:37:50;;;;;;;12.80;8.80;;;;;;;;;;5054849;28;20037;-65
2023/12/07 13:40:16;;;;;;;10.68;4.85;;;;;;;;;;5052229;28;21212;-63
2023/12/07 13:42:41;;;;;;;8.05;4.53;;;;;;;;;;5057269;28;20039;-63
2023/12/07 13:45:08;;;;;;;6.60;4.30;;;;;;;;;;5057427;28;20048;-63
2023/12/07 13:47:36;;;;;;;7.40;4.35;;;;;;;;;;5054133;28;20256;-63
2023/12/07 13:50:03;;;;;;;7.80;4.78;;;;;;;;;;5051620;28;20166;-63
2023/12/07 13:52:28;;;;;;;6.63;4.72;;;;;;;;;;5062393;28;20028;-63
2023/12/07 13:54:54;;;;;;;8.23;4.95;;;;;;;;;;5050653;28;20025;-63
2023/12/07 13:57:24;;;;;;;7.93;4.22;;;;;;;;;;5021252;28;20035;-63
2023/12/07 13:59:50;;;;;;;8.48;4.85;;;;;;;;;;5028723;28;20029;-64
2023/12/07 14:02:15;;;;;;;8.02;4.70;;;;;;;;;;5017192;28;20052;-64
2023/12/07 14:04:40;;;;;;;12.02;6.65;;;;;;;;;;5035202;28;20045;-64
2023/12/07 14:07:09;;;;;;;11.18;7.10;;;;;;;;;;5054327;28;20482;-64
2023/12/07 14:09:35;;;;;;;14.00;7.88;;;;;;;;;;5056834;28;20478;-64
2023/12/07 14:12:00;;;;;;;14.32;7.90;;;;;;;;;;5063097;28;20112;-63
2023/12/07 14:14:25;;;;;;;12.30;7.80;;;;;;;;;;5055456;28;20028;-63